Sarah — ODVY — position and weather

sailwx.info

Track history (hours):
 
Tides and Currents Weather Stations Pressure Air Temp Water Temp Dewpoint Dewpoint Depression Visibility Wind Speed Wind Dir Waves Ship Positions

Sarah

Last reported at 2017-Sep-19 22:45 UTC. Time now 2017-Sep-21 03:35 UTC.
Position N 40°21' E 027°58'.

Length 77 m; draft 6.4 m.

Type: Cargo ship. MMSI: 450554000.

Date/timePositionNaut miles runAvg speedWind from/ knotsBaromVisibWave heightAir tempDewpointWater temp
2017-Sep-19 22:45N 40°21' E 027°58'48 1.2
2017-Sep-18 06:48N 40°29' E 026°55'30 9.9
2017-Sep-18 03:48N 40°12' E 026°23'17 7.6
2017-Sep-18 01:31N 39°60' E 026°07'1 7.4
2017-Sep-18 01:24N 39°60' E 026°06'5 9.9
2017-Sep-18 00:55N 39°58' E 025°60'4 9.8
2017-Sep-18 00:30N 39°55' E 025°56'5 9.9
2017-Sep-18 00:00N 39°51' E 025°53'710.9
2017-Sep-17 23:23N 39°45' E 025°49'10710.7
2017-Sep-17 13:26N 38°10' E 024°46'7710.5
2017-Sep-17 06:04N 37°03' E 023°56'110.5
2017-Sep-17 05:59N 37°02' E 023°56'510.5
2017-Sep-17 05:30N 36°58' E 023°52'510.7
2017-Sep-17 05:00N 36°54' E 023°49'510.7
2017-Sep-17 04:30N 36°49' E 023°44'510.7
2017-Sep-17 04:00N 36°45' E 023°40'510.7
2017-Sep-17 03:30N 36°42' E 023°35'510.6
2017-Sep-17 03:00N 36°38' E 023°31'611.0
2017-Sep-17 02:30N 36°34' E 023°26'7010.3
2017-Sep-16 19:43N 36°28' E 021°59'712.2
2017-Sep-16 19:09N 36°31' E 021°52'2911.7
2017-Sep-16 16:40N 36°47' E 021°21'211.0
2017-Sep-16 16:31N 36°48' E 021°19'511.0
2017-Sep-16 16:01N 36°52' E 021°15'611.0
2017-Sep-16 15:31N 36°56' E 021°10'511.0
2017-Sep-16 15:01N 37°00' E 021°06'1211.4
2017-Sep-16 14:00N 37°09' E 020°57'611.8
2017-Sep-16 13:31N 37°14' E 020°53'52710.7
2017-Sep-14 12:08N 44°28' E 014°17'110.5
2017-Sep-14 12:00N 44°29' E 014°15'510.5
2017-Sep-14 11:30N 44°33' E 014°11'510.4
2017-Sep-14 11:00N 44°38' E 014°09'510.4
2017-Sep-14 10:30N 44°43' E 014°07'510.4
2017-Sep-14 10:00N 44°48' E 014°06'510.4
2017-Sep-14 09:30N 44°54' E 014°05'7 6.9
2017-Sep-14 08:34N 45°00' E 014°03'0 6.1
2017-Sep-14 08:30N 45°00' E 014°03'0 0.0
2017-Sep-12 20:26N 45°01' E 014°03'1 0.5
2017-Sep-12 19:18N 45°00' E 014°03'0 0.0
2017-Sep-12 18:54N 45°00' E 014°03'0 0.0
2017-Sep-12 18:18N 45°00' E 014°03'0 0.0
2017-Sep-12 16:54N 45°00' E 014°03'0 0.0
2017-Sep-12 16:27N 45°00' E 014°03'0 0.0
2017-Sep-12 16:00N 45°00' E 014°03'0 0.0
2017-Sep-12 15:30N 45°00' E 014°03'0 0.0
2017-Sep-12 14:54N 45°00' E 014°03'2 3.9
2017-Sep-12 14:22N 44°59' E 014°05'3 8.8
2017-Sep-12 14:00N 44°55' E 014°05'510.5
2017-Sep-12 13:30N 44°50' E 014°07'510.6
2017-Sep-12 13:00N 44°45' E 014°08'510.7
2017-Sep-12 12:30N 44°40' E 014°08'611.0
2017-Sep-12 12:00N 44°34' E 014°10'610.9
2017-Sep-12 11:29N 44°30' E 014°15'33411.2
2017-Sep-11 05:32N 40°10' E 018°58'011.6
2017-Sep-11 05:30N 40°09' E 018°59'611.7
2017-Sep-11 05:00N 40°05' E 019°03'1011.7
2017-Sep-11 04:10N 39°57' E 019°11'211.7
2017-Sep-11 04:00N 39°55' E 019°13'1411.5
2017-Sep-11 02:49N 39°43' E 019°21'311.5
2017-Sep-11 02:30N 39°40' E 019°23'  
Track history (hours):
 
Tides and Currents Weather Stations Pressure Air Temp Water Temp Dewpoint Dewpoint Depression Visibility Wind Speed Wind Dir Waves Ship Positions

Sarah

Last reported at 2017-Sep-19 22:45 UTC. Time now 2017-Sep-21 03:35 UTC.
Position N 40°21' E 027°58'.

Length 77 m; draft 6.4 m.

Type: Cargo ship. MMSI: 450554000.

Date/timePositionNaut miles runAvg speedWind from/ knotsBaromVisibWave heightAir tempDewpointWater temp
2017-Sep-19 22:45N 40°21' E 027°58'48 1.2
2017-Sep-18 06:48N 40°29' E 026°55'30 9.9
2017-Sep-18 03:48N 40°12' E 026°23'17 7.6
2017-Sep-18 01:31N 39°60' E 026°07'1 7.4
2017-Sep-18 01:24N 39°60' E 026°06'5 9.9
2017-Sep-18 00:55N 39°58' E 025°60'4 9.8
2017-Sep-18 00:30N 39°55' E 025°56'5 9.9
2017-Sep-18 00:00N 39°51' E 025°53'710.9
2017-Sep-17 23:23N 39°45' E 025°49'10710.7
2017-Sep-17 13:26N 38°10' E 024°46'7710.5
2017-Sep-17 06:04N 37°03' E 023°56'110.5
2017-Sep-17 05:59N 37°02' E 023°56'510.5
2017-Sep-17 05:30N 36°58' E 023°52'510.7
2017-Sep-17 05:00N 36°54' E 023°49'510.7
2017-Sep-17 04:30N 36°49' E 023°44'510.7
2017-Sep-17 04:00N 36°45' E 023°40'510.7
2017-Sep-17 03:30N 36°42' E 023°35'510.6
2017-Sep-17 03:00N 36°38' E 023°31'611.0
2017-Sep-17 02:30N 36°34' E 023°26'7010.3
2017-Sep-16 19:43N 36°28' E 021°59'712.2
2017-Sep-16 19:09N 36°31' E 021°52'2911.7
2017-Sep-16 16:40N 36°47' E 021°21'211.0
2017-Sep-16 16:31N 36°48' E 021°19'511.0
2017-Sep-16 16:01N 36°52' E 021°15'611.0
2017-Sep-16 15:31N 36°56' E 021°10'511.0
2017-Sep-16 15:01N 37°00' E 021°06'1211.4
2017-Sep-16 14:00N 37°09' E 020°57'611.8
2017-Sep-16 13:31N 37°14' E 020°53'52710.7
2017-Sep-14 12:08N 44°28' E 014°17'110.5
2017-Sep-14 12:00N 44°29' E 014°15'510.5
2017-Sep-14 11:30N 44°33' E 014°11'510.4
2017-Sep-14 11:00N 44°38' E 014°09'510.4
2017-Sep-14 10:30N 44°43' E 014°07'510.4
2017-Sep-14 10:00N 44°48' E 014°06'510.4
2017-Sep-14 09:30N 44°54' E 014°05'7 6.9
2017-Sep-14 08:34N 45°00' E 014°03'0 6.1
2017-Sep-14 08:30N 45°00' E 014°03'0 0.0
2017-Sep-12 20:26N 45°01' E 014°03'1 0.5
2017-Sep-12 19:18N 45°00' E 014°03'0 0.0
2017-Sep-12 18:54N 45°00' E 014°03'0 0.0
2017-Sep-12 18:18N 45°00' E 014°03'0 0.0
2017-Sep-12 16:54N 45°00' E 014°03'0 0.0
2017-Sep-12 16:27N 45°00' E 014°03'0 0.0
2017-Sep-12 16:00N 45°00' E 014°03'0 0.0
2017-Sep-12 15:30N 45°00' E 014°03'0 0.0
2017-Sep-12 14:54N 45°00' E 014°03'2 3.9
2017-Sep-12 14:22N 44°59' E 014°05'3 8.8
2017-Sep-12 14:00N 44°55' E 014°05'510.5
2017-Sep-12 13:30N 44°50' E 014°07'510.6
2017-Sep-12 13:00N 44°45' E 014°08'510.7
2017-Sep-12 12:30N 44°40' E 014°08'611.0
2017-Sep-12 12:00N 44°34' E 014°10'610.9
2017-Sep-12 11:29N 44°30' E 014°15'33411.2
2017-Sep-11 05:32N 40°10' E 018°58'011.6
2017-Sep-11 05:30N 40°09' E 018°59'611.7
2017-Sep-11 05:00N 40°05' E 019°03'1011.7
2017-Sep-11 04:10N 39°57' E 019°11'211.7
2017-Sep-11 04:00N 39°55' E 019°13'1411.5
2017-Sep-11 02:49N 39°43' E 019°21'311.5
2017-Sep-11 02:30N 39°40' E 019°23'  

Dump ship's entire track history